Time;durP1;ratioP1;P1;durP2;ratioP2;P2;SDS_P1;SDS_P2;PMS_P1;PMS_P2;Temp;Humidity;BMP_temperature;BMP_pressure;BME280_temperature;BME280_humidity;BME280_pressure;Samples;Min_cycle;Max_cycle;Signal;HPM_P1;HPM_P2
2023/04/29 00:00:05;;;;;;;3.25;2.30;;;;;;;16.19;nan;99249.91;5020134;28;20196;-86
2023/04/29 00:02:37;;;;;;;4.65;2.40;;;;;;;16.17;nan;99251.88;5021008;28;20189;-87
2023/04/29 00:05:03;;;;;;;2.80;2.53;;;;;;;16.15;nan;99257.34;5018760;28;20209;-88
2023/04/29 00:07:31;;;;;;;3.88;2.50;;;;;;;16.14;nan;99257.47;5020216;28;20249;-87
2023/04/29 00:09:57;;;;;;;4.55;2.38;;;;;;;16.11;nan;99260.41;5019228;28;20203;-87
2023/04/29 00:12:23;;;;;;;5.30;3.00;;;;;;;16.09;nan;99249.09;5019986;28;20193;-85
2023/04/29 00:14:48;;;;;;;4.17;2.33;;;;;;;16.11;nan;99250.63;5021344;28;20259;-87
2023/04/29 00:17:15;;;;;;;5.00;2.70;;;;;;;16.13;nan;99251.31;5018878;28;20300;-87
2023/04/29 00:19:40;;;;;;;3.50;2.95;;;;;;;16.13;nan;99243.38;5020800;28;20192;-88
2023/04/29 00:22:06;;;;;;;3.40;2.83;;;;;;;16.13;nan;99250.50;5020957;28;20189;-87
2023/04/29 00:24:31;;;;;;;2.70;2.20;;;;;;;16.07;nan;99251.91;5020137;28;20435;-86
2023/04/29 00:26:57;;;;;;;2.33;2.13;;;;;;;15.98;nan;99255.38;5020804;28;20222;-86
2023/04/29 00:29:22;;;;;;;3.07;2.73;;;;;;;15.87;nan;99258.19;5004327;28;20691;-86
2023/04/29 00:31:48;;;;;;;4.23;2.57;;;;;;;15.75;nan;99251.38;5018186;28;20225;-87
2023/04/29 00:34:13;;;;;;;4.50;2.83;;;;;;;15.72;nan;99241.06;5019871;28;20431;-87
2023/04/29 00:36:39;;;;;;;2.93;2.63;;;;;;;15.70;nan;99239.38;5005091;28;20458;-85
2023/04/29 00:39:05;;;;;;;3.10;2.87;;;;;;;15.72;nan;99241.06;5020216;28;20192;-87
2023/04/29 00:41:31;;;;;;;2.80;2.40;;;;;;;15.74;nan;99239.09;5003003;28;20217;-86
2023/04/29 00:43:57;;;;;;;5.25;2.88;;;;;;;15.74;nan;99229.31;5003005;28;20219;-86
2023/04/29 00:46:22;;;;;;;3.57;2.93;;;;;;;15.72;nan;99233.94;5019454;28;20208;-86
2023/04/29 00:48:48;;;;;;;2.93;2.57;;;;;;;15.67;nan;99239.63;5018641;28;20214;-87
2023/04/29 00:51:16;;;;;;;3.35;3.03;;;;;;;15.68;nan;99229.84;5019070;28;20195;-86
2023/04/29 00:53:42;;;;;;;2.65;2.45;;;;;;;15.70;nan;99242.00;5020065;28;20190;-85
2023/04/29 00:56:07;;;;;;;2.93;2.23;;;;;;;15.74;nan;99231.97;5003863;28;20203;-84
2023/04/29 00:58:35;;;;;;;2.75;2.17;;;;;;;15.76;nan;99242.44;5002035;28;20196;-86
2023/04/29 01:01:02;;;;;;;3.28;2.88;;;;;;;15.76;nan;99237.97;4993507;28;20202;-85
2023/04/29 01:03:30;;;;;;;3.92;3.10;;;;;;;15.76;nan;99237.97;5018987;28;20470;-86
2023/04/29 01:06:08;;;;;;;6.18;3.47;;;;;;;15.78;nan;99235.19;5003881;28;20214;-86
2023/04/29 01:08:57;;;;;;;2.30;2.05;;;;;;;15.79;nan;99242.16;5008049;28;20208;-87
2023/04/29 01:11:33;;;;;;;2.55;2.33;;;;;;;15.76;nan;99247.72;5027586;28;20212;-85
2023/04/29 01:14:00;;;;;;;2.55;2.35;;;;;;;15.73;nan;99251.50;5011202;28;20212;-87
2023/04/29 01:16:35;;;;;;;3.05;2.85;;;;;;;15.68;nan;99246.59;5010762;28;20234;-82
2023/04/29 01:19:20;;;;;;;3.55;2.20;;;;;;;15.62;nan;99247.13;4993044;28;20306;-82
2023/04/29 01:21:50;;;;;;;3.80;3.03;;;;;;;15.62;nan;99251.59;4995794;28;20225;-82
2023/04/29 01:24:16;;;;;;;2.20;2.00;;;;;;;15.63;nan;99237.38;4992959;28;20312;-82
2023/04/29 01:26:53;;;;;;;2.60;2.22;;;;;;;15.65;nan;99238.09;4995285;28;20272;-83
2023/04/29 01:29:45;;;;;;;3.10;2.30;;;;;;;15.67;nan;99239.63;4994675;28;20205;-82
2023/04/29 01:32:24;;;;;;;2.42;2.25;;;;;;;15.68;nan;99235.16;4995596;28;20204;-82
2023/04/29 01:34:57;;;;;;;3.10;2.42;;;;;;;15.67;nan;99236.16;5011268;28;20434;-82
2023/04/29 01:37:36;;;;;;;2.20;2.00;;;;;;;15.66;nan;99243.25;4994631;28;20221;-82
2023/04/29 01:40:21;;;;;;;2.20;1.85;;;;;;;15.66;nan;99243.25;4996088;28;20212;-83
2023/04/29 01:43:03;;;;;;;2.28;2.10;;;;;;;15.64;nan;99231.97;4995498;28;20288;-82
2023/04/29 01:45:33;;;;;;;4.63;2.15;;;;;;;15.61;nan;99240.19;4994998;28;20736;-83
2023/04/29 01:48:00;;;;;;;2.67;2.47;;;;;;;15.57;nan;99241.41;4995426;28;20218;-81
2023/04/29 01:50:26;;;;;;;2.25;2.05;;;;;;;15.52;nan;99230.41;4997571;28;20194;-82
2023/04/29 01:52:52;;;;;;;2.80;1.77;;;;;;;15.47;nan;99229.97;4994975;28;20214;-82
2023/04/29 01:55:18;;;;;;;2.67;2.03;;;;;;;15.44;nan;99233.75;4997528;28;20251;-82
2023/04/29 01:57:54;;;;;;;2.08;1.88;;;;;;;15.43;nan;99228.59;4981315;28;20197;-82
2023/04/29 02:00:43;;;;;;;4.00;2.15;;;;;;;15.41;nan;99233.19;4990568;28;20269;-82
2023/04/29 02:03:08;;;;;;;2.90;2.30;;;;;;;15.40;nan;99226.22;4994257;28;20529;-82
2023/04/29 02:05:39;;;;;;;4.55;2.70;;;;;;;15.42;nan;99233.06;4996106;28;20497;-83
2023/04/29 02:08:06;;;;;;;3.40;2.27;;;;;;;15.43;nan;99225.94;4995367;28;20245;-82
2023/04/29 02:10:35;;;;;;;3.28;2.70;;;;;;;15.43;nan;99233.91;4995849;28;20202;-83
2023/04/29 02:13:17;;;;;;;4.18;2.35;;;;;;;15.40;nan;99237.66;4996836;28;20197;-82
2023/04/29 02:15:42;;;;;;;2.90;2.20;;;;;;;15.39;nan;99233.34;4995647;28;20216;-83
2023/04/29 02:18:08;;;;;;;2.47;2.27;;;;;;;15.39;nan;99236.00;4994671;28;20207;-82
2023/04/29 02:20:33;;;;;;;7.93;3.00;;;;;;;15.39;nan;99240.41;4996010;28;20204;-82
2023/04/29 02:22:59;;;;;;;2.50;2.23;;;;;;;15.37;nan;99231.81;4995939;28;20753;-82
2023/04/29 02:25:24;;;;;;;4.20;2.50;;;;;;;15.31;nan;99234.97;4994025;28;21015;-82
2023/04/29 02:27:50;;;;;;;2.47;2.20;;;;;;;15.29;nan;99234.31;4996161;28;20871;-82
2023/04/29 02:30:16;;;;;;;2.67;2.47;;;;;;;15.24;nan;99242.63;5011593;28;20244;-83
2023/04/29 02:32:41;;;;;;;2.83;2.63;;;;;;;15.18;nan;99238.72;4986304;28;21078;-83
2023/04/29 02:35:07;;;;;;;2.80;2.40;;;;;;;15.13;nan;99242.75;4978742;28;20202;-82
2023/04/29 02:37:33;;;;;;;3.73;2.00;;;;;;;15.10;nan;99251.81;4994567;28;20287;-83
2023/04/29 02:39:58;;;;;;;3.33;3.00;;;;;;;15.10;nan;99245.69;4995449;28;21034;-82
2023/04/29 02:42:24;;;;;;;2.70;2.50;;;;;;;15.08;nan;99248.44;4997316;28;20455;-83
2023/04/29 02:44:49;;;;;;;2.47;2.20;;;;;;;15.10;nan;99246.50;4995125;28;20227;-82
2023/04/29 02:47:15;;;;;;;4.53;2.63;;;;;;;15.10;nan;99250.97;4996202;28;20226;-82
2023/04/29 02:49:40;;;;;;;3.40;2.40;;;;;;;15.09;nan;99249.28;4997279;28;20288;-82
2023/04/29 02:52:06;;;;;;;3.40;2.50;;;;;;;15.09;nan;99236.06;4996988;28;20846;-82
2023/04/29 02:54:32;;;;;;;6.45;2.65;;;;;;;15.05;nan;99232.84;4993208;28;20220;-82
2023/04/29 02:56:58;;;;;;;2.53;1.97;;;;;;;15.02;nan;99243.72;4995187;28;20224;-83
2023/04/29 02:59:23;;;;;;;2.60;2.20;;;;;;;14.99;nan;99239.53;4998504;28;20202;-82
2023/04/29 03:01:49;;;;;;;2.40;2.20;;;;;;;14.98;nan;99237.00;4997261;28;20282;-82
2023/04/29 03:04:14;;;;;;;3.00;2.70;;;;;;;14.99;nan;99239.53;4993815;28;20441;-82
2023/04/29 03:06:40;;;;;;;3.00;2.80;;;;;;;14.98;nan;99232.53;4998480;28;20219;-82
2023/04/29 03:09:06;;;;;;;3.45;2.42;;;;;;;14.96;nan;99233.66;4997343;28;20780;-82
2023/04/29 03:11:31;;;;;;;2.53;2.33;;;;;;;14.96;nan;99233.66;4998882;28;20583;-82
2023/04/29 03:13:56;;;;;;;3.53;2.00;;;;;;;14.94;nan;99233.78;4995834;28;20205;-82
2023/04/29 03:16:23;;;;;;;1.93;1.83;;;;;;;14.91;nan;99238.53;4998116;28;20268;-82
2023/04/29 03:18:48;;;;;;;2.58;2.35;;;;;;;14.83;nan;99234.72;4998271;28;20219;-82
2023/04/29 03:21:14;;;;;;;3.17;2.80;;;;;;;14.81;nan;99236.66;4981685;28;20250;-82
2023/04/29 03:23:39;;;;;;;2.83;2.63;;;;;;;14.80;nan;99242.94;4981055;28;20209;-82
2023/04/29 03:26:06;;;;;;;2.95;2.70;;;;;;;14.79;nan;99246.53;4978941;28;20679;-82
2023/04/29 03:28:32;;;;;;;2.37;2.17;;;;;;;14.77;nan;99245.00;4980288;28;20256;-83
2023/04/29 03:30:58;;;;;;;3.07;2.77;;;;;;;14.74;nan;99240.84;4995371;28;20217;-82
2023/04/29 03:33:24;;;;;;;3.13;2.88;;;;;;;14.74;nan;99250.53;4980965;28;20210;-82
2023/04/29 03:35:49;;;;;;;3.92;2.60;;;;;;;14.75;nan;99245.13;4980543;28;20485;-82
2023/04/29 03:38:44;;;;;;;3.47;3.17;;;;;;;14.74;nan;99238.19;4980386;28;20636;-82
2023/04/29 03:41:09;;;;;;;2.20;2.00;;;;;;;14.70;nan;99244.69;4979242;28;20764;-83
2023/04/29 03:43:35;;;;;;;2.10;1.97;;;;;;;14.67;nan;99250.25;4980352;28;20279;-82
2023/04/29 03:46:00;;;;;;;2.07;1.70;;;;;;;14.64;nan;99244.41;4978865;28;20244;-82
2023/04/29 03:48:26;;;;;;;3.30;2.50;;;;;;;14.63;nan;99243.53;4977923;28;20218;-83
2023/04/29 03:50:52;;;;;;;2.60;2.20;;;;;;;14.62;nan;99241.06;4981822;28;20383;-83
2023/04/29 03:53:17;;;;;;;4.03;2.80;;;;;;;14.59;nan;99244.78;4977374;28;20297;-82
2023/04/29 03:55:43;;;;;;;3.10;2.90;;;;;;;14.54;nan;99245.19;4982368;28;20373;-82
2023/04/29 03:58:09;;;;;;;3.60;2.93;;;;;;;14.51;nan;99244.59;4980251;28;20806;-82
2023/04/29 04:00:35;;;;;;;4.00;2.80;;;;;;;14.50;nan;99245.53;4980141;28;20459;-82
2023/04/29 04:03:04;;;;;;;3.95;3.22;;;;;;;14.49;nan;99247.34;4997245;28;20209;-82
2023/04/29 04:05:29;;;;;;;5.70;2.50;;;;;;;14.51;nan;99255.16;4977323;28;20434;-82
2023/04/29 04:08:00;;;;;;;5.75;2.30;;;;;;;14.51;nan;99260.44;4998976;28;21042;-82
2023/04/29 04:10:28;;;;;;;2.28;2.10;;;;;;;14.49;nan;99254.44;4997610;28;20238;-83
2023/04/29 04:12:55;;;;;;;4.03;2.20;;;;;;;14.46;nan;99242.31;4980680;28;20303;-83
2023/04/29 04:15:21;;;;;;;2.83;2.43;;;;;;;14.46;nan;99254.72;4979331;28;20330;-82
2023/04/29 04:17:46;;;;;;;2.70;2.50;;;;;;;14.44;nan;99254.00;4997046;28;20591;-82
2023/04/29 04:20:12;;;;;;;3.10;2.80;;;;;;;14.39;nan;99255.25;4978337;28;20222;-82
2023/04/29 04:22:38;;;;;;;2.15;1.95;;;;;;;14.36;nan;99257.28;4996862;28;20208;-82
2023/04/29 04:25:25;;;;;;;2.45;2.20;;;;;;;14.34;nan;99260.06;4983075;28;20205;-82
2023/04/29 04:27:54;;;;;;;4.35;3.95;;;;;;;14.32;nan;99266.44;4979627;28;20219;-83
2023/04/29 04:30:31;;;;;;;5.95;2.72;;;;;;;14.30;nan;99268.38;4980231;28;20369;-82
2023/04/29 04:32:56;;;;;;;4.80;2.50;;;;;;;14.28;nan;99271.13;4980154;28;20874;-82
2023/04/29 04:35:22;;;;;;;4.43;3.10;;;;;;;14.28;nan;99276.41;4979955;28;20489;-82
2023/04/29 04:37:47;;;;;;;3.63;2.33;;;;;;;14.30;nan;99278.94;5003395;28;20680;-82
2023/04/29 04:40:13;;;;;;;5.70;2.53;;;;;;;14.31;nan;99284.13;4991207;28;20221;-82
2023/04/29 04:42:59;;;;;;;2.88;2.67;;;;;;;14.32;nan;99292.88;5011521;28;20534;-83
2023/04/29 04:45:28;;;;;;;4.13;2.42;;;;;;;14.32;nan;99295.50;4995820;28;20224;-82
2023/04/29 04:47:54;;;;;;;1.80;1.70;;;;;;;14.28;nan;99297.56;4995998;28;20972;-82
2023/04/29 04:50:20;;;;;;;2.40;1.75;;;;;;;14.23;nan;99309.47;4994140;28;20221;-82
2023/04/29 04:52:47;;;;;;;5.53;3.03;;;;;;;14.16;nan;99310.00;4995317;28;20204;-82
2023/04/29 04:55:30;;;;;;;5.55;2.45;;;;;;;14.10;nan;99313.16;4995645;28;20213;-82
2023/04/29 04:57:55;;;;;;;2.75;2.20;;;;;;;14.12;nan;99318.28;5005431;28;20302;-82
2023/04/29 05:00:21;;;;;;;3.00;2.70;;;;;;;14.13;nan;99328.75;4985192;28;20274;-82
2023/04/29 05:02:46;;;;;;;2.57;2.37;;;;;;;14.16;nan;99327.66;5013126;28;20215;-82
2023/04/29 05:05:12;;;;;;;3.73;2.63;;;;;;;14.22;nan;99331.59;4995605;28;20504;-82
2023/04/29 05:07:40;;;;;;;5.63;2.97;;;;;;;14.26;nan;99328.56;4999483;28;20231;-81
2023/04/29 05:10:07;;;;;;;3.47;3.17;;;;;;;14.30;nan;99337.91;5016654;28;20860;-81
2023/04/29 05:12:37;;;;;;;6.50;3.30;;;;;;;14.36;nan;99336.56;4998656;28;20220;-83
2023/04/29 05:15:03;;;;;;;3.43;3.13;;;;;;;14.42;nan;99343.13;5013861;28;20204;-82
2023/04/29 05:17:35;;;;;;;5.68;3.83;;;;;;;14.48;nan;99350.56;4980492;28;20217;-82
2023/04/29 05:20:00;;;;;;;3.38;3.13;;;;;;;14.57;nan;99349.81;4994844;28;20826;-82
2023/04/29 05:22:25;;;;;;;5.40;4.40;;;;;;;14.65;nan;99351.81;5007159;28;20213;-82
2023/04/29 05:24:53;;;;;;;3.10;2.50;;;;;;;14.73;nan;99352.81;5003085;28;20220;-82
2023/04/29 05:27:18;;;;;;;4.07;2.63;;;;;;;14.82;nan;99351.19;4985552;28;20833;-83
2023/04/29 05:29:44;;;;;;;3.50;3.20;;;;;;;14.89;nan;99355.00;4985689;28;20216;-82
2023/04/29 05:32:12;;;;;;;2.70;2.47;;;;;;;15.01;nan;99353.97;4986553;28;20294;-83
2023/04/29 05:34:37;;;;;;;2.63;2.33;;;;;;;15.23;nan;99352.94;4986152;28;20720;-82
2023/04/29 05:37:03;;;;;;;3.30;2.40;;;;;;;15.61;nan;99356.69;4991778;28;20287;-82
2023/04/29 05:39:32;;;;;;;2.28;1.92;;;;;;;15.99;nan;99349.78;4989883;28;20264;-81
2023/04/29 05:42:07;;;;;;;2.20;1.90;;;;;;;16.20;nan;99356.75;4990736;28;20215;-82
2023/04/29 05:44:40;;;;;;;2.13;1.85;;;;;;;16.26;nan;99364.16;4987101;28;20215;-82
2023/04/29 05:47:05;;;;;;;1.77;1.60;;;;;;;16.29;nan;99369.19;4979170;28;20207;-82
2023/04/29 05:49:31;;;;;;;2.40;2.30;;;;;;;16.24;nan;99377.53;4986806;28;20276;-82
2023/04/29 05:51:56;;;;;;;1.50;1.40;;;;;;;16.17;nan;99383.53;4982143;28;20209;-83
2023/04/29 05:54:22;;;;;;;1.60;1.50;;;;;;;16.07;nan;99387.03;4975858;28;20238;-84
2023/04/29 05:56:47;;;;;;;2.57;1.60;;;;;;;15.93;nan;99393.56;4985576;28;20216;-84
2023/04/29 05:59:12;;;;;;;2.13;1.53;;;;;;;15.82;nan;99398.13;4996432;28;20310;-83
2023/04/29 06:01:38;;;;;;;1.90;1.80;;;;;;;15.74;nan;99400.63;4991919;28;20215;-83
2023/04/29 06:04:04;;;;;;;2.73;1.97;;;;;;;15.68;nan;99409.91;4979932;28;20982;-83
2023/04/29 06:06:49;;;;;;;3.42;2.00;;;;;;;15.63;nan;99407.66;4996608;28;20230;-83
2023/04/29 06:09:41;;;;;;;2.15;1.90;;;;;;;15.62;nan;99416.59;4995499;28;20219;-84
2023/04/29 06:12:09;;;;;;;1.92;1.73;;;;;;;15.63;nan;99412.13;4977126;28;20335;-83
2023/04/29 06:14:34;;;;;;;2.88;2.17;;;;;;;15.67;nan;99411.72;4995991;28;20216;-83
2023/04/29 06:17:00;;;;;;;2.10;1.80;;;;;;;15.80;nan;99418.63;4989925;28;20246;-83
2023/04/29 06:19:26;;;;;;;2.50;2.28;;;;;;;16.22;nan;99413.94;5010827;28;20220;-83
2023/04/29 06:21:52;;;;;;;2.53;1.80;;;;;;;16.84;nan;99417.16;4995251;28;20230;-83
2023/04/29 06:24:18;;;;;;;1.60;1.50;;;;;;;17.20;nan;99412.88;4994798;28;21047;-84
2023/04/29 06:26:44;;;;;;;3.00;1.90;;;;;;;17.32;nan;99418.84;4992722;28;20683;-83
2023/04/29 06:29:10;;;;;;;2.27;1.60;;;;;;;17.27;nan;99418.44;4994223;28;20888;-84
2023/04/29 06:31:35;;;;;;;2.57;1.63;;;;;;;17.23;nan;99419.72;4993962;28;20196;-83
2023/04/29 06:34:02;;;;;;;2.60;2.10;;;;;;;17.11;nan;99426.19;4993399;28;20423;-84
2023/04/29 06:36:28;;;;;;;2.95;2.35;;;;;;;16.95;nan;99427.59;4994055;28;20302;-83
2023/04/29 06:39:10;;;;;;;3.15;2.10;;;;;;;16.81;nan;99428.06;4992656;28;20200;-84
2023/04/29 06:41:57;;;;;;;1.70;1.50;;;;;;;16.80;nan;99424.56;4992938;28;20213;-83
2023/04/29 06:44:42;;;;;;;2.33;2.10;;;;;;;16.81;nan;99420.94;4991548;28;20214;-83
2023/04/29 06:47:26;;;;;;;2.80;1.65;;;;;;;16.89;nan;99417.56;4989958;28;20219;-83
2023/04/29 06:50:11;;;;;;;7.47;2.42;;;;;;;17.08;nan;99421.16;4994931;28;20193;-84
2023/04/29 06:52:36;;;;;;;2.23;2.03;;;;;;;17.15;nan;99422.28;4994853;28;20209;-83
2023/04/29 06:55:02;;;;;;;2.27;2.07;;;;;;;17.18;nan;99428.13;4994243;28;20241;-84
2023/04/29 06:57:28;;;;;;;2.03;1.83;;;;;;;17.09;nan;99425.47;4994152;28;20209;-84
2023/04/29 06:59:53;;;;;;;2.20;1.80;;;;;;;17.00;nan;99427.19;4996032;28;20268;-84
2023/04/29 07:02:19;;;;;;;2.40;2.20;;;;;;;17.03;nan;99418.94;4992376;28;20260;-84
2023/04/29 07:04:45;;;;;;;4.10;1.80;;;;;;;17.15;nan;99420.44;4991120;28;20185;-84
2023/04/29 07:07:13;;;;;;;1.60;1.50;;;;;;;17.33;nan;99428.47;4994419;28;20765;-84
2023/04/29 07:09:38;;;;;;;2.53;2.13;;;;;;;17.41;nan;99427.75;4992963;28;20205;-84
2023/04/29 07:12:04;;;;;;;2.57;1.67;;;;;;;17.57;nan;99424.47;4994667;28;20570;-84
2023/04/29 07:14:29;;;;;;;4.90;4.50;;;;;;;18.19;nan;99424.69;4996306;28;20207;-84
2023/04/29 07:19:40;;;;;;;5.23;1.57;;;;;;;19.17;nan;99431.69;4885723;29;20958;-79
2023/04/29 07:22:06;;;;;;;2.17;1.90;;;;;;;19.45;nan;99435.00;4892837;29;20462;-79
2023/04/29 07:24:31;;;;;;;3.17;2.43;;;;;;;19.46;nan;99438.50;4899198;29;20201;-80
2023/04/29 07:26:57;;;;;;;2.57;2.37;;;;;;;19.53;nan;99439.53;4900841;29;20357;-80
2023/04/29 07:29:22;;;;;;;2.07;1.57;;;;;;;19.42;nan;99445.97;4903072;29;20236;-80
2023/04/29 07:31:48;;;;;;;1.83;1.73;;;;;;;19.13;nan;99448.97;4904034;29;20204;-79
2023/04/29 07:34:13;;;;;;;2.80;2.37;;;;;;;18.76;nan;99450.00;4920403;29;20204;-80
2023/04/29 07:36:38;;;;;;;2.60;1.73;;;;;;;18.50;nan;99444.63;4924082;29;20244;-80
2023/04/29 07:39:04;;;;;;;2.17;1.70;;;;;;;18.47;nan;99449.41;4909343;29;20311;-80
2023/04/29 07:41:30;;;;;;;2.60;2.00;;;;;;;18.45;nan;99457.53;4904502;29;20532;-79
2023/04/29 07:43:55;;;;;;;1.93;1.70;;;;;;;18.47;nan;99457.38;4903349;29;20199;-79
2023/04/29 07:46:21;;;;;;;2.50;1.63;;;;;;;18.44;nan;99449.69;4922256;29;20287;-79
2023/04/29 07:48:46;;;;;;;3.87;2.43;;;;;;;18.33;nan;99453.41;4923555;29;20211;-79
2023/04/29 07:51:13;;;;;;;2.63;2.00;;;;;;;18.35;nan;99459.44;4921861;29;20211;-79
2023/04/29 07:53:40;;;;;;;6.90;1.90;;;;;;;18.47;nan;99457.38;4932866;29;20225;-79
2023/04/29 07:56:07;;;;;;;2.30;2.10;;;;;;;18.44;nan;99463.00;4930662;29;20455;-80
2023/04/29 07:58:33;;;;;;;3.27;2.60;;;;;;;18.50;nan;99457.09;4944324;28;20624;-80
2023/04/29 08:01:16;;;;;;;2.90;2.10;;;;;;;18.58;nan;99465.16;4938963;28;20977;-80
2023/04/29 08:03:42;;;;;;;2.60;2.40;;;;;;;18.59;nan;99469.47;4902697;29;20459;-79
2023/04/29 08:06:10;;;;;;;3.50;2.67;;;;;;;18.56;nan;99469.78;4924182;29;20449;-79
2023/04/29 08:08:35;;;;;;;2.17;1.73;;;;;;;18.51;nan;99466.72;4923399;29;20207;-79
2023/04/29 08:11:01;;;;;;;4.63;3.07;;;;;;;18.40;nan;99466.97;4923893;29;20246;-79
2023/04/29 08:13:27;;;;;;;3.70;2.30;;;;;;;18.29;nan;99466.19;4924654;29;20209;-79
2023/04/29 08:15:53;;;;;;;3.10;2.77;;;;;;;18.22;nan;99475.75;4926387;29;20458;-79
2023/04/29 08:18:20;;;;;;;2.20;2.00;;;;;;;18.24;nan;99479.09;4914290;29;20227;-80
2023/04/29 08:20:47;;;;;;;5.10;3.10;;;;;;;18.30;nan;99481.16;4928726;29;20462;-80
2023/04/29 08:23:12;;;;;;;4.03;3.00;;;;;;;18.35;nan;99476.22;4927175;29;20510;-80
2023/04/29 08:25:42;;;;;;;5.57;2.77;;;;;;;18.49;nan;99472.19;4928754;29;20486;-80
2023/04/29 08:28:08;;;;;;;2.77;2.57;;;;;;;18.88;nan;99471.09;4928259;29;20215;-81
2023/04/29 08:30:36;;;;;;;3.75;2.67;;;;;;;19.43;nan;99476.09;4928195;29;20444;-80
2023/04/29 08:33:02;;;;;;;4.50;3.40;;;;;;;19.74;nan;99471.16;4927015;29;20233;-80
2023/04/29 08:35:27;;;;;;;3.10;2.73;;;;;;;19.81;nan;99474.81;4926498;29;20535;-80
2023/04/29 08:37:53;;;;;;;3.43;3.13;;;;;;;19.75;nan;99470.16;4929973;29;20513;-81
2023/04/29 08:40:18;;;;;;;2.47;2.27;;;;;;;19.68;nan;99466.44;4927130;29;20695;-80
2023/04/29 08:42:44;;;;;;;3.90;3.50;;;;;;;19.54;nan;99473.16;4928345;29;20217;-79
2023/04/29 08:45:10;;;;;;;3.70;3.33;;;;;;;19.46;nan;99465.13;4929053;29;20327;-80
2023/04/29 08:47:36;;;;;;;3.73;2.57;;;;;;;19.36;nan;99465.25;4931192;29;20502;-80
2023/04/29 08:50:04;;;;;;;3.70;2.07;;;;;;;19.34;nan;99474.41;4927866;29;20238;-80
2023/04/29 08:52:32;;;;;;;2.40;1.93;;;;;;;19.31;nan;99467.56;4925681;29;20943;-80
2023/04/29 08:55:01;;;;;;;2.20;2.00;;;;;;;19.35;nan;99463.56;4921680;29;20547;-80
2023/04/29 08:57:28;;;;;;;4.00;2.20;;;;;;;19.31;nan;99464.03;4928444;29;21002;-80
2023/04/29 08:59:54;;;;;;;3.00;1.90;;;;;;;19.37;nan;99466.09;4926802;29;20936;-80
2023/04/29 09:02:21;;;;;;;5.30;2.73;;;;;;;19.49;nan;99456.81;4927760;29;20479;-80
2023/04/29 09:05:10;;;;;;;2.60;2.40;;;;;;;19.60;nan;99463.69;4927804;29;20448;-81
2023/04/29 09:07:40;;;;;;;3.50;3.00;;;;;;;19.67;nan;99457.63;4928108;29;20256;-80
2023/04/29 09:10:06;;;;;;;3.97;2.47;;;;;;;19.72;nan;99464.31;4927725;29;20473;-80
2023/04/29 09:12:31;;;;;;;5.30;2.67;;;;;;;19.81;nan;99458.00;4928130;29;20871;-80
2023/04/29 09:14:57;;;;;;;4.20;3.20;;;;;;;19.74;nan;99465.81;4927634;29;20443;-80
2023/04/29 09:17:41;;;;;;;5.50;3.37;;;;;;;19.60;nan;99459.19;4929462;29;20267;-80
2023/04/29 09:20:19;;;;;;;3.30;2.93;;;;;;;19.54;nan;99459.84;4927486;29;20597;-80
2023/04/29 09:22:48;;;;;;;4.00;3.60;;;;;;;19.60;nan;99464.53;4927523;29;20557;-80
2023/04/29 09:25:14;;;;;;;3.43;3.13;;;;;;;19.60;nan;99461.88;4928666;29;20912;-80
2023/04/29 09:27:39;;;;;;;4.70;3.63;;;;;;;19.53;nan;99466.19;4926733;29;21078;-80
2023/04/29 09:30:06;;;;;;;4.50;3.30;;;;;;;19.40;nan;99471.94;4929535;29;20478;-80
2023/04/29 09:32:31;;;;;;;5.53;3.60;;;;;;;19.37;nan;99463.44;4932428;28;22756;-81
2023/04/29 09:34:56;;;;;;;4.93;3.70;;;;;;;19.40;nan;99463.13;4929946;29;20436;-82
2023/04/29 09:37:26;;;;;;;4.27;3.93;;;;;;;19.11;nan;99464.25;4926958;29;20286;-81
2023/04/29 09:39:53;;;;;;;3.40;3.07;;;;;;;19.04;nan;99465.03;4927169;29;21334;-79
2023/04/29 09:42:19;;;;;;;5.80;4.33;;;;;;;19.06;nan;99463.03;4928337;29;20474;-79
2023/04/29 09:44:44;;;;;;;4.47;3.30;;;;;;;19.11;nan;99458.91;4926261;29;20529;-80
2023/04/29 09:47:12;;;;;;;5.03;3.50;;;;;;;19.31;nan;99453.38;4928915;29;20216;-79
2023/04/29 09:49:40;;;;;;;5.77;5.03;;;;;;;19.52;nan;99461.00;4927291;29;20225;-82
2023/04/29 09:52:11;;;;;;;5.70;3.83;;;;;;;19.55;nan;99466.88;4928348;29;20489;-81
2023/04/29 09:54:38;;;;;;;4.97;4.57;;;;;;;19.46;nan;99454.47;4928326;29;20465;-80
2023/04/29 09:57:05;;;;;;;4.27;3.90;;;;;;;19.40;nan;99455.13;4928296;29;20467;-79
2023/04/29 09:59:33;;;;;;;3.97;3.57;;;;;;;19.21;nan;99457.00;4930130;29;20478;-80
2023/04/29 10:01:59;;;;;;;3.73;3.30;;;;;;;19.18;nan;99462.66;4929989;29;20530;-79
2023/04/29 10:04:26;;;;;;;3.97;3.63;;;;;;;19.24;nan;99463.84;4926959;29;20934;-79
2023/04/29 10:06:55;;;;;;;4.30;2.93;;;;;;;19.37;nan;99452.78;4927934;29;20314;-80
2023/04/29 10:09:22;;;;;;;4.33;3.30;;;;;;;19.68;nan;99455.78;4928253;29;20485;-81
2023/04/29 10:11:50;;;;;;;6.10;5.00;;;;;;;19.84;nan;99457.69;4928177;29;20469;-80
2023/04/29 10:14:17;;;;;;;6.40;4.00;;;;;;;19.82;nan;99452.53;4927421;29;20986;-81
2023/04/29 10:17:09;;;;;;;4.53;4.10;;;;;;;19.74;nan;99455.16;4930024;29;20442;-81
2023/04/29 10:19:42;;;;;;;5.20;4.53;;;;;;;19.62;nan;99451.88;4925833;29;20483;-81
2023/04/29 10:22:15;;;;;;;6.70;4.40;;;;;;;19.42;nan;99456.63;4927689;29;20740;-81
2023/04/29 10:24:42;;;;;;;3.80;3.50;;;;;;;19.57;nan;99451.53;4928731;29;20461;-82
2023/04/29 10:27:11;;;;;;;4.20;3.80;;;;;;;19.82;nan;99449.88;4929238;29;20479;-81
2023/04/29 10:29:38;;;;;;;3.87;3.57;;;;;;;20.17;nan;99463.97;4928202;29;20760;-80
2023/04/29 10:32:08;;;;;;;5.90;4.80;;;;;;;20.32;nan;99446.31;4925848;29;20483;-80
2023/04/29 10:34:36;;;;;;;4.88;4.15;;;;;;;20.53;nan;99443.22;4924998;29;20442;-80
2023/04/29 10:37:02;;;;;;;5.47;3.00;;;;;;;20.48;nan;99436.66;4926209;29;20225;-81
2023/04/29 10:40:04;;;;;;;3.40;3.10;;;;;;;20.69;nan;99433.56;4925672;29;20430;-82
2023/04/29 10:42:38;;;;;;;4.37;3.30;;;;;;;20.78;nan;99435.19;4882008;29;20209;-85
2023/04/29 10:45:17;;;;;;;3.87;3.57;;;;;;;20.72;nan;99441.22;4927340;29;20485;-84
2023/04/29 10:48:05;;;;;;;4.20;3.10;;;;;;;20.61;nan;99441.56;4926521;29;20899;-82
2023/04/29 10:51:00;;;;;;;3.63;3.13;;;;;;;20.67;nan;99439.03;4925714;29;20437;-84
2023/04/29 10:53:27;;;;;;;4.10;3.30;;;;;;;20.80;nan;99441.22;4924287;29;20435;-84
2023/04/29 10:56:03;;;;;;;5.30;3.30;;;;;;;20.95;nan;99436.88;4924590;29;20465;-81
2023/04/29 10:58:42;;;;;;;3.00;2.80;;;;;;;21.05;nan;99438.53;4923914;29;20462;-81
2023/04/29 11:01:13;;;;;;;3.60;3.00;;;;;;;21.18;nan;99433.50;4923314;29;20991;-81
2023/04/29 11:03:46;;;;;;;2.93;2.63;;;;;;;21.18;nan;99420.97;4924954;29;20527;-81
2023/04/29 11:06:14;;;;;;;5.50;3.67;;;;;;;21.03;nan;99433.34;4924217;29;20507;-81
2023/04/29 11:08:41;;;;;;;2.87;2.63;;;;;;;20.84;nan;99431.03;4923251;29;20502;-81
2023/04/29 11:11:06;;;;;;;6.37;2.90;;;;;;;20.85;nan;99424.72;4927058;29;20892;-81
2023/04/29 11:13:37;;;;;;;4.17;2.90;;;;;;;20.98;nan;99428.53;4925135;29;20455;-79
2023/04/29 11:16:04;;;;;;;3.67;2.67;;;;;;;21.05;nan;99425.16;4927554;29;20199;-81
2023/04/29 11:18:29;;;;;;;2.30;2.20;;;;;;;21.10;nan;99430.84;4908910;29;20554;-79
2023/04/29 11:21:07;;;;;;;2.50;1.97;;;;;;;21.17;nan;99418.44;4926701;29;20734;-80
2023/04/29 11:23:43;;;;;;;3.63;2.50;;;;;;;21.28;nan;99422.59;4923906;29;21086;-80
2023/04/29 11:26:09;;;;;;;2.60;2.40;;;;;;;21.38;nan;99425.94;4924237;29;20463;-80
2023/04/29 11:28:34;;;;;;;2.90;2.40;;;;;;;21.42;nan;99422.78;4924932;28;20984;-80
2023/04/29 11:31:02;;;;;;;3.17;2.20;;;;;;;21.51;nan;99425.41;4925545;29;20229;-80
2023/04/29 11:33:31;;;;;;;2.60;2.40;;;;;;;21.43;nan;99420.94;4925800;29;20234;-80
2023/04/29 11:35:57;;;;;;;3.00;2.50;;;;;;;21.21;nan;99411.78;4924374;29;20474;-80
2023/04/29 11:38:26;;;;;;;2.80;2.40;;;;;;;21.07;nan;99424.00;4925310;29;20536;-80
2023/04/29 11:40:54;;;;;;;5.00;2.70;;;;;;;21.06;nan;99427.66;4925452;29;20286;-81
2023/04/29 11:43:21;;;;;;;3.13;2.87;;;;;;;21.07;nan;99420.50;4926623;29;20928;-80
2023/04/29 11:45:47;;;;;;;3.97;2.33;;;;;;;21.10;nan;99418.31;4925045;29;20530;-80
2023/04/29 11:48:23;;;;;;;2.70;2.50;;;;;;;21.23;nan;99419.63;4925109;29;20534;-80
2023/04/29 11:50:51;;;;;;;2.10;2.00;;;;;;;21.36;nan;99426.09;4921690;29;20508;-80
2023/04/29 11:53:20;;;;;;;3.73;2.97;;;;;;;21.36;nan;99423.44;4922390;29;20512;-80
2023/04/29 11:55:47;;;;;;;3.03;2.23;;;;;;;21.33;nan;99429.13;4922541;29;20446;-80
2023/04/29 11:58:15;;;;;;;4.10;2.40;;;;;;;21.39;nan;99424.97;4919613;29;20544;-80
2023/04/29 12:00:40;;;;;;;2.60;2.40;;;;;;;21.40;nan;99418.59;4921845;29;20524;-80